Time;durP1;ratioP1;P1;durP2;ratioP2;P2;SDS_P1;SDS_P2;PMS_P1;PMS_P2;Temp;Humidity;BMP_temperature;BMP_pressure;BME280_temperature;BME280_humidity;BME280_pressure;Samples;Min_cycle;Max_cycle;Signal;HPM_P1;HPM_P2
2022/05/22 00:01:45;;;;;;;5.75;1.80;;;;;;;11.02;100.00;100892.94;6242656;28;20049;-89
2022/05/22 00:04:47;;;;;;;5.22;2.00;;;;;;;11.03;100.00;100899.78;6243937;28;20166;-90
2022/05/22 00:07:49;;;;;;;3.53;1.77;;;;;;;10.98;100.00;100891.50;6245279;28;20044;-89
2022/05/22 00:10:51;;;;;;;5.78;1.77;;;;;;;10.95;100.00;100884.78;6249748;28;20487;-90
2022/05/22 00:13:54;;;;;;;4.05;2.00;;;;;;;10.87;100.00;100887.13;6256816;28;20042;-89
2022/05/22 00:16:59;;;;;;;3.75;1.60;;;;;;;10.84;100.00;100889.97;6240386;28;20033;-89
2022/05/22 00:20:01;;;;;;;4.03;1.77;;;;;;;10.83;100.00;100893.50;6252976;28;20053;-89
2022/05/22 00:23:03;;;;;;;6.35;2.20;;;;;;;10.83;100.00;100892.66;6255265;28;20037;-89
2022/05/22 00:26:04;;;;;;;4.47;2.08;;;;;;;10.75;100.00;100886.28;6229382;28;20118;-90
2022/05/22 00:29:07;;;;;;;2.97;2.03;;;;;;;10.75;100.00;100886.28;6252977;28;20036;-89
2022/05/22 00:32:09;;;;;;;5.80;2.47;;;;;;;10.71;100.00;100887.47;6261267;28;20399;-89
2022/05/22 00:35:11;;;;;;;4.38;1.92;;;;;;;10.66;100.00;100875.81;6242158;28;20187;-89
2022/05/22 00:38:13;;;;;;;2.83;1.80;;;;;;;10.64;100.00;100873.31;6243868;28;20077;-89
2022/05/22 00:41:17;;;;;;;5.28;2.00;;;;;;;10.67;100.00;100875.66;6248832;28;20039;-90
2022/05/22 00:44:20;;;;;;;8.88;2.20;;;;;;;10.60;100.00;100871.06;6258019;28;20098;-89
2022/05/22 00:47:23;;;;;;;6.18;2.35;;;;;;;10.59;100.00;100862.47;6253074;28;20051;-89
2022/05/22 00:50:25;;;;;;;4.60;2.15;;;;;;;10.63;100.00;100866.47;6244189;28;20060;-89
2022/05/22 00:53:31;;;;;;;4.97;1.80;;;;;;;10.62;100.00;100866.59;6249920;28;20041;-89
2022/05/22 00:56:39;;;;;;;2.92;2.03;;;;;;;10.57;100.00;100875.53;6241893;28;20041;-90
2022/05/22 00:59:45;;;;;;;6.40;2.10;;;;;;;10.57;100.00;100869.53;6248940;28;20048;-89
2022/05/22 01:06:12;;;;;;;3.17;1.85;;;;;;;10.53;100.00;100861.16;6242833;28;20056;-89
2022/05/22 01:09:15;;;;;;;4.30;2.25;;;;;;;10.55;100.00;100855.88;6259936;28;20089;-90
2022/05/22 01:12:23;;;;;;;4.63;2.20;;;;;;;10.55;100.00;100867.03;6255640;28;20127;-89
2022/05/22 01:15:29;;;;;;;3.30;1.75;;;;;;;10.54;100.00;100862.81;6242549;28;20037;-89
2022/05/22 01:18:41;;;;;;;5.38;2.22;;;;;;;10.54;100.00;100869.75;6232202;28;20057;-89
2022/05/22 01:21:54;;;;;;;5.47;2.03;;;;;;;10.52;100.00;100872.44;6246932;28;20043;-89
2022/05/22 01:24:57;;;;;;;2.55;1.70;;;;;;;10.44;100.00;100877.38;6234886;28;20355;-90
2022/05/22 01:28:01;;;;;;;4.68;2.10;;;;;;;10.41;100.00;100879.34;6248494;28;20033;-90
2022/05/22 01:31:05;;;;;;;4.40;1.90;;;;;;;10.38;100.00;100882.97;6234119;28;20033;-89
2022/05/22 01:34:08;;;;;;;4.25;1.80;;;;;;;10.32;100.00;100873.06;6249203;28;20064;-89
2022/05/22 01:37:10;;;;;;;5.50;2.15;;;;;;;10.26;100.00;100879.50;6237400;28;20568;-90
2022/05/22 01:40:16;;;;;;;5.18;1.80;;;;;;;10.27;100.00;100880.31;6233165;28;20047;-90
2022/05/22 01:43:20;;;;;;;2.33;1.70;;;;;;;10.29;100.00;100881.06;6239066;28;20560;-90
2022/05/22 01:46:22;;;;;;;3.97;1.88;;;;;;;10.22;100.00;100874.66;6236107;28;20049;-90
2022/05/22 01:49:31;;;;;;;5.30;2.05;;;;;;;10.26;100.00;100878.66;6236587;28;20183;-90
2022/05/22 01:52:35;;;;;;;4.43;1.80;;;;;;;10.33;100.00;100864.38;6241072;28;20559;-89
2022/05/22 01:55:37;;;;;;;4.75;2.30;;;;;;;10.43;100.00;100865.34;6242879;28;20147;-89
2022/05/22 01:58:40;;;;;;;3.60;2.00;;;;;;;10.53;100.00;100863.75;6238035;28;20037;-89
2022/05/22 02:01:44;;;;;;;5.20;2.10;;;;;;;10.56;100.00;100873.88;6235990;28;20045;-89
2022/05/22 02:04:46;;;;;;;6.60;2.10;;;;;;;10.62;100.00;100870.00;6230482;28;20041;-90
2022/05/22 02:11:11;;;;;;;4.28;2.30;;;;;;;10.72;100.00;100862.38;6230865;28;20494;-90
2022/05/22 02:14:17;;;;;;;6.45;2.10;;;;;;;10.82;100.00;100860.75;6242200;28;20486;-89
2022/05/22 02:17:25;;;;;;;3.90;1.88;;;;;;;10.90;100.00;100853.22;6240965;28;20053;-90
2022/05/22 02:20:29;;;;;;;4.32;2.08;;;;;;;10.91;100.00;100847.13;6241098;28;20037;-90
2022/05/22 02:23:34;;;;;;;5.05;2.17;;;;;;;10.96;100.00;100846.78;6243323;28;20132;-90
2022/05/22 02:26:36;;;;;;;5.70;2.45;;;;;;;11.02;100.00;100845.50;6248895;28;20059;-90
2022/05/22 02:29:40;;;;;;;5.03;2.15;;;;;;;10.97;100.00;100841.47;6229181;28;20044;-90
2022/05/22 02:32:41;;;;;;;3.35;1.80;;;;;;;10.99;100.00;100839.59;6239156;28;20045;-89
2022/05/22 02:35:46;;;;;;;5.03;2.33;;;;;;;11.08;100.00;100832.91;6234855;28;20494;-90
2022/05/22 02:38:54;;;;;;;6.05;2.47;;;;;;;11.12;100.00;100843.84;6236342;28;20136;-89
2022/05/22 02:42:08;;;;;;;5.95;2.10;;;;;;;11.10;100.00;100831.00;6247232;28;20048;-90
2022/05/22 02:45:12;;;;;;;4.93;1.92;;;;;;;11.05;100.00;100832.31;6220561;28;20071;-90
2022/05/22 02:48:14;;;;;;;6.80;2.33;;;;;;;11.03;100.00;100839.38;6239547;28;20049;-90
2022/05/22 02:51:29;;;;;;;8.27;2.00;;;;;;;11.03;100.00;100834.19;6232129;28;20487;-89
2022/05/22 02:54:31;;;;;;;5.57;2.15;;;;;;;11.05;100.00;100832.31;6236498;28;20049;-90
2022/05/22 02:57:40;;;;;;;7.00;2.05;;;;;;;11.09;100.00;100844.09;6218095;28;20057;-90
2022/05/22 03:00:42;;;;;;;5.63;1.90;;;;;;;11.05;100.00;100840.91;6240643;28;20057;-90
2022/05/22 03:03:44;;;;;;;3.55;1.83;;;;;;;11.11;100.00;100847.41;6241503;28;20124;-90
2022/05/22 03:06:47;;;;;;;4.03;2.20;;;;;;;11.08;100.00;100852.78;6259451;28;20044;-89
2022/05/22 03:09:49;;;;;;;4.60;1.90;;;;;;;11.03;100.00;100855.75;6237653;28;20042;-90
2022/05/22 03:12:51;;;;;;;4.43;1.92;;;;;;;10.95;100.00;100852.91;6238818;28;20512;-89
2022/05/22 03:16:01;;;;;;;4.10;2.03;;;;;;;10.92;100.00;100856.53;6240898;28;20164;-90
2022/05/22 03:19:16;;;;;;;7.13;2.38;;;;;;;11.07;100.00;100862.34;6229756;28;20540;-89
2022/05/22 03:22:18;;;;;;;5.00;1.90;;;;;;;11.13;100.00;100869.66;6224833;28;20049;-89
2022/05/22 03:25:21;;;;;;;6.78;1.95;;;;;;;11.15;100.00;100872.13;6240319;28;20057;-90
2022/05/22 03:28:23;;;;;;;8.93;2.15;;;;;;;11.13;100.00;100863.63;6240221;28;20086;-89
2022/05/22 03:31:25;;;;;;;4.65;1.90;;;;;;;11.06;100.00;100852.09;6236380;28;20194;-90
2022/05/22 03:34:27;;;;;;;5.25;2.15;;;;;;;10.98;100.00;100855.25;6249881;28;20573;-90
2022/05/22 03:37:31;;;;;;;5.95;1.95;;;;;;;10.87;100.00;100843.13;6238006;28;20049;-90
2022/05/22 03:40:42;;;;;;;6.45;2.10;;;;;;;10.84;100.00;100850.31;6236996;28;20041;-90
2022/05/22 03:43:45;;;;;;;4.47;1.98;;;;;;;10.71;100.00;100843.44;6239647;28;20114;-90
2022/05/22 03:47:02;;;;;;;8.10;2.30;;;;;;;10.65;100.00;100849.06;6238215;28;20057;-90
2022/05/22 03:50:16;;;;;;;7.18;2.03;;;;;;;10.56;100.00;100847.19;6237964;28;20049;-90
2022/05/22 03:53:18;;;;;;;4.68;1.85;;;;;;;10.55;100.00;100845.50;6239305;28;20080;-89
2022/05/22 03:56:21;;;;;;;5.70;2.10;;;;;;;10.52;100.00;100838.78;6236725;28;20707;-90
2022/05/22 03:59:25;;;;;;;4.18;1.98;;;;;;;10.45;100.00;100827.25;6247191;28;20072;-90
2022/05/22 04:02:28;;;;;;;7.45;2.13;;;;;;;10.48;100.00;100828.78;6232192;28;20695;-90
2022/05/22 04:05:30;;;;;;;3.47;1.80;;;;;;;10.43;100.00;100839.47;6254286;28;20502;-90
2022/05/22 04:08:36;;;;;;;5.38;2.03;;;;;;;10.32;100.00;100840.25;6235987;28;20691;-90
2022/05/22 04:11:41;;;;;;;3.35;1.60;;;;;;;10.32;100.00;100829.09;6241246;28;20495;-90
2022/05/22 04:14:45;;;;;;;4.85;1.85;;;;;;;10.28;100.00;100828.47;6252386;28;20065;-90
2022/05/22 04:17:48;;;;;;;6.25;2.05;;;;;;;10.34;100.00;100828.03;6223805;28;20115;-90
2022/05/22 04:20:55;;;;;;;3.85;1.92;;;;;;;10.37;100.00;100823.59;6214719;28;20044;-90
2022/05/22 04:27:39;;;;;;;4.07;2.03;;;;;;;10.33;100.00;100835.91;6244357;28;20141;-90
2022/05/22 04:30:42;;;;;;;6.32;2.10;;;;;;;10.28;100.00;100843.19;6243965;28;20489;-90
2022/05/22 04:33:44;;;;;;;4.75;2.10;;;;;;;10.25;100.00;100846.78;6243326;28;20529;-90
2022/05/22 04:36:45;;;;;;;3.45;2.08;;;;;;;10.23;100.00;100855.59;6248893;28;20606;-90
2022/05/22 04:40:10;;;;;;;4.32;2.47;;;;;;;10.25;100.00;100849.38;6237768;28;20061;-90
2022/05/22 04:43:12;;;;;;;7.22;2.30;;;;;;;10.33;100.00;100848.84;6259945;28;20522;-90
2022/05/22 04:46:15;;;;;;;5.30;2.42;;;;;;;10.32;100.00;100844.63;6240236;28;20078;-90
2022/05/22 04:49:23;;;;;;;5.78;2.30;;;;;;;10.34;100.00;100840.16;6239405;28;20057;-90
2022/05/22 04:52:25;;;;;;;3.58;2.05;;;;;;;10.37;100.00;100839.94;6253475;28;20052;-90
2022/05/22 04:55:27;;;;;;;3.65;2.05;;;;;;;10.42;100.00;100849.94;6258811;28;20037;-90
2022/05/22 04:58:29;;;;;;;6.60;2.50;;;;;;;10.54;100.00;100843.88;6237282;28;20389;-90
2022/05/22 05:01:35;;;;;;;5.72;2.55;;;;;;;10.68;100.00;100850.59;6250919;28;20044;-90
2022/05/22 05:04:54;;;;;;;6.68;2.53;;;;;;;10.82;100.00;100855.59;6253012;28;20079;-90
2022/05/22 05:08:00;;;;;;;5.40;2.45;;;;;;;10.95;100.00;100855.47;6246311;28;20042;-89
2022/05/22 05:11:24;;;;;;;7.82;2.58;;;;;;;11.15;100.00;100856.56;6221696;28;20141;-90
2022/05/22 05:14:38;;;;;;;5.50;2.35;;;;;;;11.33;100.00;100850.00;6223547;28;20045;-90
2022/05/22 05:17:41;;;;;;;6.85;2.80;;;;;;;11.40;100.00;100846.00;6242664;28;20049;-90
2022/05/22 05:20:46;;;;;;;7.07;2.72;;;;;;;11.45;100.00;100852.56;6231171;28;20076;-90
2022/05/22 05:23:50;;;;;;;5.85;2.60;;;;;;;11.51;100.00;100852.09;6241476;28;20749;-90
2022/05/22 05:26:57;;;;;;;5.68;2.58;;;;;;;11.56;100.00;100855.16;6258923;28;20036;-89
2022/05/22 05:30:32;;;;;;;5.57;2.60;;;;;;;11.54;100.00;100852.69;6238646;28;20483;-90
2022/05/22 05:33:35;;;;;;;7.95;2.25;;;;;;;11.52;100.00;100861.53;6236722;28;20054;-89
2022/05/22 05:36:40;;;;;;;6.97;2.80;;;;;;;11.51;100.00;100863.28;6251392;28;20127;-90
2022/05/22 05:40:01;;;;;;;9.30;2.97;;;;;;;11.67;100.00;100865.50;6238455;28;20045;-90
2022/05/22 05:43:07;;;;;;;7.65;2.80;;;;;;;11.82;100.00;100866.06;6241663;28;20064;-90
2022/05/22 05:46:10;;;;;;;8.68;2.70;;;;;;;12.04;100.00;100865.22;6247553;28;20124;-90
2022/05/22 05:49:18;;;;;;;6.47;2.58;;;;;;;12.33;100.00;100864.69;6233327;28;20049;-89
2022/05/22 05:52:25;;;;;;;6.63;2.70;;;;;;;12.71;100.00;100869.31;6241700;28;20055;-90
2022/05/22 05:56:05;;;;;;;6.50;2.70;;;;;;;12.88;100.00;100857.53;6239144;28;20128;-90
2022/05/22 05:59:41;;;;;;;5.15;2.90;;;;;;;12.98;100.00;100857.59;6228539;28;20059;-90
2022/05/22 06:02:48;;;;;;;7.45;2.92;;;;;;;12.84;100.00;100849.16;6237753;28;20132;-90
2022/05/22 06:05:50;;;;;;;9.02;3.22;;;;;;;12.82;100.00;100848.50;6242885;28;20053;-90
2022/05/22 06:09:01;;;;;;;10.85;3.20;;;;;;;12.85;100.00;100855.22;6240512;28;20136;-89
2022/05/22 06:12:14;;;;;;;8.52;3.33;;;;;;;12.91;100.00;100854.69;6240842;28;20133;-90
2022/05/22 06:15:35;;;;;;;8.27;2.92;;;;;;;13.01;100.00;100842.56;6233488;28;20053;-89
2022/05/22 06:18:39;;;;;;;9.77;3.35;;;;;;;12.85;100.00;100839.63;6254980;28;20068;-89
2022/05/22 06:21:44;;;;;;;4.28;3.08;;;;;;;12.61;100.00;100839.88;6240532;28;20047;-90
2022/05/22 06:24:48;;;;;;;9.95;4.32;;;;;;;12.37;100.00;100833.16;6238701;28;20206;-90
2022/05/22 06:28:12;;;;;;;8.73;3.88;;;;;;;12.31;100.00;100835.41;6238648;28;20055;-89
2022/05/22 06:31:43;;;;;;;11.02;3.75;;;;;;;12.25;100.00;100827.19;6181804;28;20058;-89
2022/05/22 06:35:04;;;;;;;11.00;3.67;;;;;;;12.27;100.00;100830.50;6184736;28;20054;-89
2022/05/22 06:42:30;;;;;;;9.65;3.40;;;;;;;12.23;100.00;100823.88;6125583;28;20528;-89
2022/05/22 06:46:10;;;;;;;6.50;3.22;;;;;;;12.31;100.00;100825.84;6039903;29;20495;-90
2022/05/22 06:49:31;;;;;;;7.25;3.83;;;;;;;12.34;100.00;100829.97;6041448;29;20144;-89
2022/05/22 06:52:54;;;;;;;5.43;3.17;;;;;;;12.32;100.00;100821.47;6039824;29;20061;-89
2022/05/22 06:56:25;;;;;;;6.35;3.20;;;;;;;12.25;100.00;100824.59;6048119;29;20628;-89
2022/05/22 06:59:43;;;;;;;9.45;3.70;;;;;;;12.29;100.00;100814.78;6041253;29;20085;-90
2022/05/22 07:03:18;;;;;;;8.75;3.92;;;;;;;12.31;100.00;100817.25;5985963;29;20513;-90
2022/05/22 07:06:33;;;;;;;8.20;4.65;;;;;;;12.34;100.00;100827.38;5979926;29;20137;-89
2022/05/22 07:09:50;;;;;;;7.88;4.25;;;;;;;12.34;100.00;100820.41;6003045;29;20068;-90
2022/05/22 07:13:18;;;;;;;10.02;4.28;;;;;;;12.41;100.00;100826.75;6012695;29;20057;-89
2022/05/22 07:16:35;;;;;;;8.93;3.88;;;;;;;12.48;100.00;100827.09;6084495;28;20051;-88
2022/05/22 07:19:44;;;;;;;9.23;3.88;;;;;;;12.57;100.00;100820.28;6125004;28;20043;-88
2022/05/22 07:23:05;;;;;;;10.93;4.18;;;;;;;12.60;100.00;100810.50;6125946;28;20055;-88
2022/05/22 07:26:26;;;;;;;9.25;4.25;;;;;;;12.65;100.00;100808.34;6132515;28;20063;-88
2022/05/22 07:29:41;;;;;;;6.82;3.25;;;;;;;12.83;100.00;100816.34;6124663;28;20090;-88
2022/05/22 07:33:17;;;;;;;9.30;3.83;;;;;;;12.84;100.00;100810.19;6063981;29;20103;-88
2022/05/22 07:36:35;;;;;;;8.48;3.22;;;;;;;12.85;100.00;100819.66;6052094;29;20076;-88
2022/05/22 07:39:55;;;;;;;6.55;2.90;;;;;;;13.10;100.00;100818.41;6075371;29;20056;-88
2022/05/22 07:43:28;;;;;;;8.52;3.10;;;;;;;13.07;100.00;100821.28;6088999;29;20063;-88
2022/05/22 07:46:40;;;;;;;11.30;3.00;;;;;;;13.13;100.00;100817.31;6068345;29;20099;-88
2022/05/22 07:50:17;;;;;;;8.15;3.20;;;;;;;13.23;100.00;100809.56;6082382;29;20060;-88
2022/05/22 07:53:34;;;;;;;7.07;2.63;;;;;;;13.34;100.00;100809.47;6089040;29;20179;-88
2022/05/22 07:56:55;;;;;;;7.60;2.35;;;;;;;13.40;100.00;100811.56;6089810;29;20491;-88
2022/05/22 08:00:06;;;;;;;14.25;3.22;;;;;;;13.41;100.00;100808.00;6098018;29;20052;-88
2022/05/22 08:03:17;;;;;;;7.47;2.67;;;;;;;13.67;100.00;100816.16;6074058;29;20071;-88
2022/05/22 08:06:26;;;;;;;9.57;3.03;;;;;;;13.99;100.00;100815.91;6099749;29;20071;-88
2022/05/22 08:09:28;;;;;;;7.32;2.47;;;;;;;14.14;100.00;100815.53;6131366;28;20694;-88
2022/05/22 08:12:35;;;;;;;7.18;2.92;;;;;;;14.34;99.03;100829.34;6177265;28;20752;-88
2022/05/22 08:15:45;;;;;;;6.05;3.13;;;;;;;14.34;99.77;100830.16;6184881;28;20642;-88
2022/05/22 08:19:05;;;;;;;6.72;2.30;;;;;;;14.09;94.55;100825.53;6162776;28;20137;-88
2022/05/22 08:22:18;;;;;;;7.47;2.88;;;;;;;14.05;97.32;100824.94;6186654;28;20061;-89
2022/05/22 08:25:43;;;;;;;8.15;2.00;;;;;;;14.21;94.16;100829.63;6202550;28;20095;-88
2022/05/22 08:28:46;;;;;;;5.43;2.03;;;;;;;14.46;92.99;100823.03;6257912;28;20878;-88
2022/05/22 08:31:49;;;;;;;3.83;2.00;;;;;;;14.62;94.44;100828.50;6255767;28;20566;-88
2022/05/22 08:34:54;;;;;;;6.20;2.03;;;;;;;14.69;92.12;100826.19;6273297;28;20048;-88
2022/05/22 08:37:55;;;;;;;4.47;1.92;;;;;;;14.63;89.38;100824.97;6226569;28;20048;-88
2022/05/22 08:41:27;;;;;;;7.50;2.13;;;;;;;14.54;89.23;100823.19;6265170;28;20040;-88
2022/05/22 08:44:32;;;;;;;4.50;1.67;;;;;;;14.88;87.94;100825.31;6255225;28;20390;-88
2022/05/22 08:47:40;;;;;;;3.10;1.98;;;;;;;15.11;85.82;100810.13;6257090;28;20041;-89
2022/05/22 08:50:45;;;;;;;7.55;1.90;;;;;;;15.11;86.07;100802.31;6247673;28;20072;-88
2022/05/22 08:53:52;;;;;;;5.07;2.22;;;;;;;14.91;89.30;100808.56;6257070;28;20093;-88
2022/05/22 09:00:18;;;;;;;7.80;2.00;;;;;;;15.15;83.25;100806.25;6247342;28;20612;-88
2022/05/22 09:03:30;;;;;;;5.07;1.77;;;;;;;15.04;83.40;100801.25;6265582;28;20033;-88
2022/05/22 09:06:44;;;;;;;6.05;1.77;;;;;;;15.04;83.06;100804.66;6246563;28;20045;-88
2022/05/22 09:10:02;;;;;;;6.65;1.70;;;;;;;14.90;85.21;100812.13;6260611;28;20478;-88
2022/05/22 09:13:22;;;;;;;;;;;;;;;14.92;84.23;100790.16;6261966;28;20037;-88
2022/05/22 09:16:44;;;;;;;6.35;1.75;;;;;;;15.04;82.57;100785.59;6268573;28;19928;-88
2022/05/22 09:19:53;;;;;;;4.32;1.33;;;;;;;15.08;80.99;100786.97;6258671;28;20049;-88
2022/05/22 09:23:22;;;;;;;2.78;1.13;;;;;;;15.00;81.50;100784.22;6272078;28;20041;-88
2022/05/22 09:26:39;;;;;;;3.33;1.50;;;;;;;15.05;82.85;100789.84;6250060;28;20037;-89
2022/05/22 09:29:56;;;;;;;4.80;1.35;;;;;;;15.17;79.65;100783.47;6260113;28;20037;-88
2022/05/22 09:33:14;;;;;;;3.70;1.27;;;;;;;15.32;79.81;100785.59;6254982;28;20041;-88
2022/05/22 09:36:58;;;;;;;3.67;1.80;;;;;;;15.33;79.93;100779.41;6264778;28;20076;-88
2022/05/22 09:40:01;;;;;;;3.97;1.67;;;;;;;15.28;78.39;100775.47;6180069;28;20050;-88
2022/05/22 09:43:48;;;;;;;2.25;1.25;;;;;;;15.31;78.48;100771.75;6168690;28;20615;-88
2022/05/22 09:47:05;;;;;;;5.38;1.60;;;;;;;15.42;76.51;100766.31;6121513;28;20481;-88
2022/05/22 09:50:43;;;;;;;4.43;1.70;;;;;;;15.52;75.32;100766.25;6134768;28;20107;-88
2022/05/22 09:54:03;;;;;;;5.88;1.60;;;;;;;15.57;74.46;100758.78;6128666;28;20563;-89
2022/05/22 09:57:52;;;;;;;4.90;1.70;;;;;;;15.68;73.07;100766.41;6131494;28;20055;-88
2022/05/22 10:01:23;;;;;;;5.47;1.67;;;;;;;15.85;74.24;100763.97;6131646;28;20065;-88
2022/05/22 10:04:52;;;;;;;4.05;1.77;;;;;;;16.04;73.87;100771.66;6126627;28;20563;-87
2022/05/22 10:08:21;;;;;;;4.32;1.58;;;;;;;16.06;70.21;100771.50;6127891;28;20086;-87
2022/05/22 10:11:59;;;;;;;3.78;1.42;;;;;;;16.14;70.31;100769.78;6134931;28;20043;-87
2022/05/22 10:15:43;;;;;;;4.28;1.40;;;;;;;16.24;64.99;100764.47;6157934;28;20054;-86
2022/05/22 10:19:25;;;;;;;2.30;1.38;;;;;;;16.26;65.68;100769.53;6203902;28;20057;-86
2022/05/22 10:22:53;;;;;;;5.53;1.70;;;;;;;16.26;66.11;100764.31;6234682;28;20418;-89
2022/05/22 10:26:04;;;;;;;3.25;1.33;;;;;;;16.24;68.24;100768.88;6260202;28;20037;-89
2022/05/22 10:29:35;;;;;;;2.55;1.30;;;;;;;16.28;63.56;100755.34;6256721;28;20479;-87
2022/05/22 10:32:45;;;;;;;4.28;1.75;;;;;;;16.48;63.92;100753.38;6245713;28;20071;-88
2022/05/22 10:36:27;;;;;;;3.95;1.55;;;;;;;16.63;61.79;100747.56;6256008;28;20037;-89
2022/05/22 10:39:30;;;;;;;5.72;1.77;;;;;;;16.83;63.47;100756.84;6248526;28;20037;-89
2022/05/22 10:42:45;;;;;;;3.92;1.52;;;;;;;16.87;62.60;100752.13;6234533;28;20036;-88
2022/05/22 10:45:49;;;;;;;4.72;1.77;;;;;;;16.98;63.28;100744.81;6239547;28;20159;-87
2022/05/22 10:48:57;;;;;;;2.78;1.58;;;;;;;17.08;65.47;100752.53;6250188;28;20029;-88
2022/05/22 10:52:02;;;;;;;4.43;1.63;;;;;;;17.21;61.34;100744.25;6256031;28;20033;-88
2022/05/22 10:55:18;;;;;;;2.60;1.30;;;;;;;17.30;58.53;100740.69;6256493;28;20047;-88
2022/05/22 10:58:39;;;;;;;4.47;1.63;;;;;;;17.36;57.85;100747.06;6230604;28;20175;-88
2022/05/22 11:01:42;;;;;;;4.78;1.63;;;;;;;17.43;56.89;100734.97;6232388;28;20118;-88
2022/05/22 11:04:46;;;;;;;3.70;1.30;;;;;;;17.55;53.61;100740.72;6262147;28;20048;-89
2022/05/22 11:07:51;;;;;;;2.08;1.27;;;;;;;17.67;55.17;100738.63;6243280;28;20041;-88
2022/05/22 11:11:00;;;;;;;5.05;1.65;;;;;;;17.91;56.41;100736.03;6244750;28;20504;-89
2022/05/22 11:14:10;;;;;;;2.80;1.75;;;;;;;18.37;55.07;100732.88;6248545;28;20037;-89
2022/05/22 11:17:16;;;;;;;1.73;1.38;;;;;;;18.59;51.83;100737.41;6251232;28;20044;-89
2022/05/22 11:20:24;;;;;;;5.47;1.83;;;;;;;18.71;54.70;100725.59;6244728;28;20421;-89
2022/05/22 11:23:46;;;;;;;3.70;1.40;;;;;;;18.68;55.10;100720.69;6245982;28;20494;-88
2022/05/22 11:27:02;;;;;;;4.80;1.60;;;;;;;18.68;53.70;100720.69;6249307;28;20708;-91
2022/05/22 11:30:41;;;;;;;3.90;1.60;;;;;;;18.76;54.63;100706.75;6245465;28;20134;-91
2022/05/22 11:33:54;;;;;;;7.05;1.80;;;;;;;18.84;55.83;100703.28;6238156;28;20041;-91
2022/05/22 11:37:10;;;;;;;6.78;1.52;;;;;;;19.02;53.85;100701.19;6251062;28;20063;-89
2022/05/22 11:40:30;;;;;;;6.45;1.77;;;;;;;18.94;51.84;100691.56;6251758;28;20053;-89
2022/05/22 11:44:09;;;;;;;4.70;1.63;;;;;;;19.02;54.72;100698.56;6253996;28;20047;-89
2022/05/22 11:47:23;;;;;;;6.45;1.50;;;;;;;19.10;53.93;100687.22;6244043;28;20423;-87
2022/05/22 11:50:39;;;;;;;5.75;1.52;;;;;;;19.37;50.73;100689.34;6249897;28;20481;-87
2022/05/22 11:53:55;;;;;;;4.13;1.63;;;;;;;19.59;52.46;100690.31;6234917;28;20498;-87
2022/05/22 11:57:38;;;;;;;3.85;1.40;;;;;;;19.79;51.35;100684.63;6244958;28;20095;-87
2022/05/22 12:00:51;;;;;;;4.03;1.30;;;;;;;20.38;50.46;100674.19;6251969;28;20110;-87
2022/05/22 12:04:23;;;;;;;5.72;1.20;;;;;;;20.60;47.74;100677.75;6250014;28;20041;-87
2022/05/22 12:07:52;;;;;;;2.97;1.05;;;;;;;20.56;48.21;100678.28;6248390;28;20045;-86
2022/05/22 12:11:31;;;;;;;2.47;1.17;;;;;;;20.56;47.31;100667.75;6254907;28;20052;-87
2022/05/22 12:14:58;;;;;;;4.25;1.30;;;;;;;20.79;49.87;100663.16;6247503;28;20029;-87
2022/05/22 12:18:07;;;;;;;2.70;1.17;;;;;;;21.03;48.34;100658.59;6250781;28;20040;-88
2022/05/22 12:21:33;;;;;;;5.18;1.50;;;;;;;21.15;49.37;100656.28;6252745;28;20078;-87
2022/05/22 12:24:59;;;;;;;5.07;1.50;;;;;;;21.05;47.66;100657.41;6235166;28;20049;-87
2022/05/22 12:28:17;;;;;;;3.63;1.30;;;;;;;21.35;52.39;100651.22;6247948;28;20053;-87
2022/05/22 12:31:24;;;;;;;2.88;1.50;;;;;;;21.66;46.09;100649.09;6231186;28;20268;-88
2022/05/22 12:34:42;;;;;;;3.42;1.30;;;;;;;21.71;46.85;100643.22;6257338;28;20116;-87
2022/05/22 12:37:49;;;;;;;4.35;1.13;;;;;;;21.73;48.79;100647.28;6253358;28;20121;-85
2022/05/22 12:41:53;;;;;;;2.58;1.30;;;;;;;21.90;48.14;100639.09;6243976;28;20049;-86
2022/05/22 12:44:55;;;;;;;3.78;1.48;;;;;;;21.83;48.48;100631.13;6158335;28;20059;-87
2022/05/22 12:48:10;;;;;;;4.65;1.55;;;;;;;21.78;47.02;100640.63;6145239;28;20475;-87
2022/05/22 12:51:18;;;;;;;3.60;1.40;;;;;;;21.80;44.87;100633.38;6160255;28;20050;-89
2022/05/22 12:54:24;;;;;;;4.22;1.20;;;;;;;21.82;44.67;100628.72;6166006;28;20448;-86
2022/05/22 12:57:27;;;;;;;3.40;1.08;;;;;;;21.76;47.15;100627.63;6152971;28;20047;-86
2022/05/22 13:00:37;;;;;;;2.53;1.00;;;;;;;21.98;46.33;100617.03;6162717;28;20042;-86
2022/05/22 13:03:41;;;;;;;3.55;1.30;;;;;;;22.08;43.99;100622.78;6162735;28;20062;-86
2022/05/22 13:07:09;;;;;;;3.72;1.55;;;;;;;21.71;43.06;100619.50;6143064;28;20495;-87
2022/05/22 13:10:20;;;;;;;2.28;1.25;;;;;;;21.33;45.31;100619.78;6157829;28;20070;-87
2022/05/22 13:13:30;;;;;;;;;;;;;;;21.59;47.98;100608.69;6159151;28;20050;-86
2022/05/22 13:16:45;;;;;;;8.68;1.27;;;;;;;22.24;44.57;100614.59;6243601;28;19975;-88
2022/05/22 13:19:56;;;;;;;3.38;1.38;;;;;;;22.62;45.18;100606.22;6262023;28;20067;-86
2022/05/22 13:23:23;;;;;;;4.72;1.20;;;;;;;22.91;42.15;100602.44;6252327;28;20049;-86
2022/05/22 13:26:31;;;;;;;2.83;1.02;;;;;;;23.09;43.69;100601.88;6253128;28;20041;-87
2022/05/22 13:29:54;;;;;;;4.05;1.30;;;;;;;22.99;40.53;100596.97;6256817;28;20540;-87
2022/05/22 13:32:58;;;;;;;;;;;;;;;22.73;40.03;100586.34;6248017;28;20130;-87
2022/05/22 13:36:13;;;;;;;3.42;1.08;;;;;;;22.75;42.20;100585.13;6249156;28;19960;-87
2022/05/22 13:39:24;;;;;;;3.25;1.45;;;;;;;22.95;40.83;100577.25;6248434;28;20141;-87
2022/05/22 13:42:28;;;;;;;4.72;1.38;;;;;;;22.91;41.21;100576.03;6246968;28;20052;-87
2022/05/22 13:45:58;;;;;;;2.45;1.05;;;;;;;22.97;41.68;100567.31;6233731;28;20046;-87
2022/05/22 13:49:18;;;;;;;3.15;1.10;;;;;;;23.14;43.43;100569.59;6244942;28;20050;-87
2022/05/22 13:52:40;;;;;;;3.47;1.13;;;;;;;23.29;39.42;100556.97;6246375;28;20368;-87
2022/05/22 13:55:44;;;;;;;3.58;1.33;;;;;;;23.46;37.18;100565.31;6260640;28;20056;-87
2022/05/22 13:58:49;;;;;;;2.67;1.00;;;;;;;23.54;36.72;100570.38;6258111;28;20045;-87
2022/05/22 14:01:53;;;;;;;4.93;1.20;;;;;;;23.51;39.67;100562.06;6223325;28;20063;-86
2022/05/22 14:04:56;;;;;;;1.92;1.17;;;;;;;23.60;42.97;100551.06;6240632;28;20549;-87
2022/05/22 14:07:58;;;;;;;4.43;1.20;;;;;;;23.64;41.21;100554.09;6260287;28;20033;-87
2022/05/22 14:11:09;;;;;;;3.28;1.25;;;;;;;23.76;38.20;100546.38;6268925;28;20111;-89
2022/05/22 14:14:20;;;;;;;2.90;1.33;;;;;;;23.88;43.75;100541.25;6250731;28;20438;-87
2022/05/22 14:17:33;;;;;;;4.05;1.50;;;;;;;23.99;36.92;100538.75;6241602;28;20490;-88
2022/05/22 14:20:41;;;;;;;2.85;1.05;;;;;;;23.85;37.81;100535.38;6257581;28;20033;-86
2022/05/22 14:27:19;;;;;;;;;;;;;;;23.96;42.16;100546.31;6255561;28;20112;-86
2022/05/22 14:30:29;;;;;;;3.28;1.15;;;;;;;23.98;38.62;100531.06;6246656;28;19928;-87
2022/05/22 14:33:35;;;;;;;2.78;1.17;;;;;;;23.37;39.92;100535.63;6249298;28;20190;-86
2022/05/22 14:36:37;;;;;;;2.70;1.15;;;;;;;22.78;40.67;100539.88;6262644;28;20056;-85
2022/05/22 14:39:50;;;;;;;2.85;1.17;;;;;;;22.93;42.52;100525.66;6259132;28;20602;-84
2022/05/22 14:43:02;;;;;;;2.72;1.08;;;;;;;23.24;41.44;100525.09;6257001;28;20477;-87
2022/05/22 14:46:07;;;;;;;3.00;1.27;;;;;;;23.68;39.26;100526.25;6254322;28;20312;-87
2022/05/22 14:49:41;;;;;;;3.70;1.23;;;;;;;24.03;37.85;100523.31;6260828;28;20439;-87
2022/05/22 14:52:51;;;;;;;2.05;1.00;;;;;;;23.99;39.92;100522.91;6254189;28;20091;-87
2022/05/22 14:56:18;;;;;;;5.57;1.40;;;;;;;24.02;36.42;100519.03;6239516;28;20077;-87
2022/05/22 14:59:31;;;;;;;3.40;1.20;;;;;;;23.90;38.54;100518.06;6246199;28;20287;-85
2022/05/22 15:03:08;;;;;;;1.77;0.95;;;;;;;24.05;39.80;100516.78;6225683;28;20045;-86
2022/05/22 15:06:11;;;;;;;5.50;1.40;;;;;;;24.36;36.74;100522.34;6226961;28;20383;-88
2022/05/22 15:09:26;;;;;;;3.13;1.27;;;;;;;24.56;36.19;100517.75;6253428;28;20041;-87
2022/05/22 15:12:40;;;;;;;3.63;1.33;;;;;;;24.60;36.53;100511.03;6249400;28;20538;-87